Time;durP1;ratioP1;P1;durP2;ratioP2;P2;SDS_P1;SDS_P2;PMS_P1;PMS_P2;Temp;Humidity;BMP_temperature;BMP_pressure;BME280_temperature;BME280_humidity;BME280_pressure;Samples;Min_cycle;Max_cycle;Signal;HPM_P1;HPM_P2
2022/06/18 00:01:33;;;;;;;3.30;3.00;;;;;;;;;;4987764;28;20780;-56
2022/06/18 00:03:59;;;;;;;3.92;3.00;;;;;;;;;;4989989;28;20189;-56
2022/06/18 00:06:25;;;;;;;4.35;3.33;;;;;;;;;;4985620;28;20265;-56
2022/06/18 00:08:51;;;;;;;2.90;2.70;;;;;;;;;;4991325;28;20750;-58
2022/06/18 00:14:02;;;;;;;4.38;3.10;;;;;;;;;;4991957;28;20204;-59
2022/06/18 00:16:31;;;;;;;3.13;2.85;;;;;;;;;;4985537;28;20651;-58
2022/06/18 00:18:57;;;;;;;3.30;3.10;;;;;;;;;;4983866;28;20277;-58
2022/06/18 00:21:23;;;;;;;3.40;3.10;;;;;;;;;;4993343;28;20715;-58
2022/06/18 00:23:49;;;;;;;3.50;3.20;;;;;;;;;;4987284;28;20185;-58
2022/06/18 00:26:15;;;;;;;3.20;3.00;;;;;;;;;;4990738;28;20194;-58
2022/06/18 00:28:41;;;;;;;3.88;3.53;;;;;;;;;;4987721;28;20966;-56
2022/06/18 00:31:07;;;;;;;4.63;3.10;;;;;;;;;;4982833;28;20604;-57
2022/06/18 00:33:36;;;;;;;2.83;2.63;;;;;;;;;;4990158;28;20190;-58
2022/06/18 00:36:03;;;;;;;3.60;2.90;;;;;;;;;;4988454;28;20190;-57
2022/06/18 00:38:30;;;;;;;3.30;3.00;;;;;;;;;;4993268;28;20281;-57
2022/06/18 00:40:56;;;;;;;3.10;2.80;;;;;;;;;;4992992;28;20186;-57
2022/06/18 00:43:25;;;;;;;3.22;3.03;;;;;;;;;;4981323;28;20577;-56
2022/06/18 00:45:51;;;;;;;2.90;2.70;;;;;;;;;;4982688;28;20705;-57
2022/06/18 00:48:35;;;;;;;4.03;3.03;;;;;;;;;;4983086;28;20956;-57
2022/06/18 00:51:23;;;;;;;3.30;2.90;;;;;;;;;;4991604;28;20201;-57
2022/06/18 00:53:53;;;;;;;3.23;2.97;;;;;;;;;;4979250;28;20679;-57
2022/06/18 00:56:29;;;;;;;3.27;2.97;;;;;;;;;;4985181;28;20780;-57
2022/06/18 00:58:57;;;;;;;5.30;3.30;;;;;;;;;;4976968;28;20272;-56
2022/06/18 01:01:26;;;;;;;4.33;3.00;;;;;;;;;;4969473;28;20786;-57
2022/06/18 01:03:52;;;;;;;6.00;3.00;;;;;;;;;;4986364;28;20266;-56
2022/06/18 01:06:26;;;;;;;3.00;2.80;;;;;;;;;;4980588;28;20287;-57
2022/06/18 01:08:55;;;;;;;3.00;2.80;;;;;;;;;;4976473;28;20232;-57
2022/06/18 01:11:23;;;;;;;4.03;2.90;;;;;;;;;;4985605;28;20186;-56
2022/06/18 01:13:49;;;;;;;3.23;3.00;;;;;;;;;;4981580;28;20725;-57
2022/06/18 01:16:16;;;;;;;3.67;2.87;;;;;;;;;;4981062;28;20194;-57
2022/06/18 01:18:42;;;;;;;2.93;2.70;;;;;;;;;;4989786;28;20170;-57
2022/06/18 01:21:08;;;;;;;3.47;2.67;;;;;;;;;;4987628;28;20588;-57
2022/06/18 01:23:39;;;;;;;3.40;2.90;;;;;;;;;;4982184;28;20179;-56
2022/06/18 01:26:05;;;;;;;4.03;2.70;;;;;;;;;;4988993;28;20186;-56
2022/06/18 01:28:31;;;;;;;4.07;2.40;;;;;;;;;;4985757;28;20237;-57
2022/06/18 01:30:57;;;;;;;3.07;2.87;;;;;;;;;;4981992;28;20651;-57
2022/06/18 01:33:23;;;;;;;4.10;3.03;;;;;;;;;;4979554;28;20278;-57
2022/06/18 01:35:51;;;;;;;3.70;3.00;;;;;;;;;;4985381;28;20602;-57
2022/06/18 01:38:17;;;;;;;4.87;2.93;;;;;;;;;;4970790;28;20189;-57
2022/06/18 01:40:45;;;;;;;3.47;2.90;;;;;;;;;;4988501;28;20197;-57
2022/06/18 01:43:12;;;;;;;3.20;3.00;;;;;;;;;;4988660;28;20610;-57
2022/06/18 01:45:39;;;;;;;3.27;3.00;;;;;;;;;;4995343;28;20197;-57
2022/06/18 01:48:10;;;;;;;3.50;3.20;;;;;;;;;;4982393;28;20193;-55
2022/06/18 01:50:38;;;;;;;3.20;3.00;;;;;;;;;;4991713;28;20798;-56
2022/06/18 01:53:12;;;;;;;3.73;3.43;;;;;;;;;;4983134;28;20543;-57
2022/06/18 01:55:39;;;;;;;5.73;3.07;;;;;;;;;;4986308;28;20221;-58
2022/06/18 01:58:06;;;;;;;3.17;2.87;;;;;;;;;;4979955;28;20268;-56
2022/06/18 02:00:32;;;;;;;2.90;2.70;;;;;;;;;;4982576;28;20243;-54
2022/06/18 02:02:59;;;;;;;4.80;3.13;;;;;;;;;;4988095;28;20607;-57
2022/06/18 02:05:25;;;;;;;3.20;2.90;;;;;;;;;;4976091;28;20228;-57
2022/06/18 02:07:51;;;;;;;3.93;3.00;;;;;;;;;;4984561;28;20225;-57
2022/06/18 02:10:18;;;;;;;5.33;2.90;;;;;;;;;;4975971;28;20690;-57
2022/06/18 02:12:44;;;;;;;5.20;2.90;;;;;;;;;;4974770;28;20185;-56
2022/06/18 02:15:14;;;;;;;4.90;3.17;;;;;;;;;;4986060;28;20186;-57
2022/06/18 02:17:40;;;;;;;4.97;3.17;;;;;;;;;;4986064;28;20265;-56
2022/06/18 02:20:07;;;;;;;4.53;3.07;;;;;;;;;;4984302;28;20224;-57
2022/06/18 02:22:35;;;;;;;3.63;3.33;;;;;;;;;;4991852;28;20186;-57
2022/06/18 02:25:01;;;;;;;4.00;2.80;;;;;;;;;;4991464;28;20196;-57
2022/06/18 02:27:27;;;;;;;4.57;3.23;;;;;;;;;;4982845;28;20222;-56
2022/06/18 02:29:54;;;;;;;5.20;3.10;;;;;;;;;;4986943;28;20205;-57
2022/06/18 02:32:22;;;;;;;3.87;3.47;;;;;;;;;;4989889;28;20193;-56
2022/06/18 02:34:48;;;;;;;3.80;3.20;;;;;;;;;;4989341;28;20217;-57
2022/06/18 02:37:16;;;;;;;3.80;3.13;;;;;;;;;;4985157;28;20399;-56
2022/06/18 02:39:52;;;;;;;4.17;3.37;;;;;;;;;;4987036;28;20193;-58
2022/06/18 02:42:19;;;;;;;3.93;3.00;;;;;;;;;;4985085;28;20267;-56
2022/06/18 02:44:45;;;;;;;3.63;3.33;;;;;;;;;;4986374;28;20286;-56
2022/06/18 02:47:11;;;;;;;4.07;3.50;;;;;;;;;;4982381;28;20616;-59
2022/06/18 02:49:39;;;;;;;3.20;3.00;;;;;;;;;;4986325;28;20213;-58
2022/06/18 02:52:05;;;;;;;3.40;3.10;;;;;;;;;;4995085;28;20667;-57
2022/06/18 02:54:31;;;;;;;3.97;2.90;;;;;;;;;;4987268;28;20296;-56
2022/06/18 02:56:57;;;;;;;4.20;3.30;;;;;;;;;;4975444;28;20220;-58
2022/06/18 02:59:23;;;;;;;3.07;2.87;;;;;;;;;;4989817;28;20186;-57
2022/06/18 03:01:49;;;;;;;3.43;3.13;;;;;;;;;;4980626;28;20209;-56
2022/06/18 03:04:15;;;;;;;4.10;3.10;;;;;;;;;;4988351;28;20293;-56
2022/06/18 03:06:41;;;;;;;4.50;3.23;;;;;;;;;;4985821;28;20237;-57
2022/06/18 03:09:07;;;;;;;4.13;3.17;;;;;;;;;;4983299;28;20210;-56
2022/06/18 03:14:18;;;;;;;3.67;3.33;;;;;;;;;;4979386;28;20267;-56
2022/06/18 03:16:44;;;;;;;5.30;3.20;;;;;;;;;;4980050;28;20281;-55
2022/06/18 03:19:19;;;;;;;3.67;3.03;;;;;;;;;;4977099;28;20268;-57
2022/06/18 03:21:46;;;;;;;4.17;3.00;;;;;;;;;;4986943;28;20194;-57
2022/06/18 03:24:13;;;;;;;3.30;3.00;;;;;;;;;;4992514;28;20284;-55
2022/06/18 03:26:39;;;;;;;5.53;2.90;;;;;;;;;;4993783;28;20198;-58
2022/06/18 03:29:05;;;;;;;3.00;2.70;;;;;;;;;;4989103;28;20229;-58
2022/06/18 03:31:32;;;;;;;2.83;2.60;;;;;;;;;;4985467;28;20765;-58
2022/06/18 03:33:58;;;;;;;4.10;3.07;;;;;;;;;;4989624;28;20595;-58
2022/06/18 03:36:24;;;;;;;4.83;3.00;;;;;;;;;;4990767;28;20189;-58
2022/06/18 03:38:50;;;;;;;4.40;2.77;;;;;;;;;;4987225;28;20636;-58
2022/06/18 03:41:16;;;;;;;3.33;2.97;;;;;;;;;;4988028;28;20400;-57
2022/06/18 03:43:42;;;;;;;4.20;2.73;;;;;;;;;;4986504;28;20265;-57
2022/06/18 03:46:08;;;;;;;5.03;3.33;;;;;;;;;;4992475;28;20185;-57
2022/06/18 03:48:40;;;;;;;3.67;2.87;;;;;;;;;;4986169;28;20732;-56
2022/06/18 03:51:06;;;;;;;5.27;3.10;;;;;;;;;;4982780;28;20684;-58
2022/06/18 03:53:32;;;;;;;4.77;3.53;;;;;;;;;;4987296;28;20189;-58
2022/06/18 03:55:58;;;;;;;4.10;3.07;;;;;;;;;;4988972;28;20197;-58
2022/06/18 03:58:27;;;;;;;6.63;3.20;;;;;;;;;;4982223;28;20194;-57
2022/06/18 04:00:53;;;;;;;3.00;2.80;;;;;;;;;;4991397;28;20194;-56
2022/06/18 04:03:18;;;;;;;3.17;2.90;;;;;;;;;;4985854;28;20205;-57
2022/06/18 04:05:44;;;;;;;4.67;3.10;;;;;;;;;;4986209;28;20201;-56
2022/06/18 04:08:14;;;;;;;3.30;3.00;;;;;;;;;;4989981;28;20721;-57
2022/06/18 04:10:40;;;;;;;3.60;3.00;;;;;;;;;;4983617;28;20233;-57
2022/06/18 04:13:06;;;;;;;3.10;2.90;;;;;;;;;;4992449;28;20202;-57
2022/06/18 04:15:32;;;;;;;4.00;3.07;;;;;;;;;;4993460;28;20846;-57
2022/06/18 04:17:58;;;;;;;3.47;2.93;;;;;;;;;;4990198;28;20185;-57
2022/06/18 04:20:25;;;;;;;5.83;3.00;;;;;;;;;;4983694;28;20191;-57
2022/06/18 04:22:51;;;;;;;6.17;3.30;;;;;;;;;;4989626;28;20216;-57
2022/06/18 04:25:17;;;;;;;4.70;3.10;;;;;;;;;;4988669;28;20615;-57
2022/06/18 04:27:43;;;;;;;2.80;2.60;;;;;;;;;;4987821;28;20616;-57
2022/06/18 04:30:09;;;;;;;6.80;3.30;;;;;;;;;;4979233;28;20206;-57
2022/06/18 04:32:38;;;;;;;3.87;2.90;;;;;;;;;;4982977;28;20702;-57
2022/06/18 04:35:04;;;;;;;4.80;3.10;;;;;;;;;;4977474;28;20216;-57
2022/06/18 04:37:30;;;;;;;4.20;3.13;;;;;;;;;;4982115;28;20544;-57
2022/06/18 04:39:56;;;;;;;4.67;3.10;;;;;;;;;;4986110;28;20204;-56
2022/06/18 04:42:22;;;;;;;5.60;3.03;;;;;;;;;;4989928;28;20505;-57
2022/06/18 04:44:49;;;;;;;3.30;2.70;;;;;;;;;;4981215;28;20183;-56
2022/06/18 04:47:15;;;;;;;3.17;2.70;;;;;;;;;;4987779;28;20197;-57
2022/06/18 04:49:41;;;;;;;5.93;3.00;;;;;;;;;;4990396;28;20200;-57
2022/06/18 04:52:07;;;;;;;2.77;2.50;;;;;;;;;;4989062;28;20224;-57
2022/06/18 04:54:32;;;;;;;4.73;3.00;;;;;;;;;;4983038;28;20696;-57
2022/06/18 04:56:59;;;;;;;6.17;3.00;;;;;;;;;;4975011;28;20201;-56
2022/06/18 04:59:24;;;;;;;6.30;3.03;;;;;;;;;;4977621;28;20216;-57
2022/06/18 05:02:04;;;;;;;3.50;3.20;;;;;;;;;;4980155;28;20186;-57
2022/06/18 05:04:30;;;;;;;3.37;3.00;;;;;;;;;;4986493;28;20601;-56
2022/06/18 05:06:56;;;;;;;3.47;3.17;;;;;;;;;;4981836;28;20834;-57
2022/06/18 05:09:22;;;;;;;3.67;2.70;;;;;;;;;;4986388;28;20321;-57
2022/06/18 05:11:48;;;;;;;3.00;2.80;;;;;;;;;;4974919;28;20190;-56
2022/06/18 05:14:16;;;;;;;4.17;2.87;;;;;;;;;;4983079;28;20632;-57
2022/06/18 05:16:43;;;;;;;6.43;3.47;;;;;;;;;;4975831;28;20630;-56
2022/06/18 05:19:23;;;;;;;4.10;2.90;;;;;;;;;;4977648;28;20198;-57
2022/06/18 05:21:49;;;;;;;2.97;2.73;;;;;;;;;;4983645;28;20202;-57
2022/06/18 05:24:15;;;;;;;4.27;3.10;;;;;;;;;;4984943;28;20592;-57
2022/06/18 05:26:42;;;;;;;7.03;3.50;;;;;;;;;;4979361;28;20190;-56
2022/06/18 05:29:08;;;;;;;3.50;2.87;;;;;;;;;;4986073;28;20218;-56
2022/06/18 05:31:34;;;;;;;3.50;3.20;;;;;;;;;;4972700;28;20258;-57
2022/06/18 05:34:00;;;;;;;3.57;3.30;;;;;;;;;;4970158;28;20252;-57
2022/06/18 05:36:26;;;;;;;4.63;3.20;;;;;;;;;;4981512;28;20714;-57
2022/06/18 05:38:53;;;;;;;3.70;3.30;;;;;;;;;;4977866;28;20198;-58
2022/06/18 05:41:19;;;;;;;5.03;3.20;;;;;;;;;;4985539;28;20190;-55
2022/06/18 05:43:45;;;;;;;5.10;4.10;;;;;;;;;;4976404;28;20213;-57
2022/06/18 05:46:11;;;;;;;5.67;3.03;;;;;;;;;;4982254;28;20185;-57
2022/06/18 05:48:37;;;;;;;3.97;3.42;;;;;;;;;;4989998;28;20198;-57
2022/06/18 05:51:05;;;;;;;3.45;3.10;;;;;;;;;;4989872;28;20299;-58
2022/06/18 05:53:31;;;;;;;4.03;3.37;;;;;;;;;;4980632;28;20189;-58
2022/06/18 05:55:57;;;;;;;3.60;3.05;;;;;;;;;;4979845;28;20202;-58
2022/06/18 05:58:23;;;;;;;6.03;3.17;;;;;;;;;;4979148;28;20237;-58
2022/06/18 06:00:49;;;;;;;6.97;3.10;;;;;;;;;;4982790;28;20272;-59
2022/06/18 06:03:15;;;;;;;5.78;2.67;;;;;;;;;;4986683;28;20392;-58
2022/06/18 06:05:41;;;;;;;2.97;2.78;;;;;;;;;;4987111;28;20439;-58
2022/06/18 06:08:07;;;;;;;3.78;3.33;;;;;;;;;;4988999;28;20190;-58
2022/06/18 06:13:18;;;;;;;3.28;2.92;;;;;;;;;;4981140;28;20192;-58
2022/06/18 06:15:44;;;;;;;6.35;3.13;;;;;;;;;;4982444;28;20190;-58
2022/06/18 06:18:11;;;;;;;3.47;3.05;;;;;;;;;;4979071;28;20201;-58
2022/06/18 06:20:38;;;;;;;5.25;3.30;;;;;;;;;;4987781;28;20182;-58
2022/06/18 06:23:04;;;;;;;7.20;3.33;;;;;;;;;;4975369;28;20339;-60
2022/06/18 06:25:30;;;;;;;4.57;3.20;;;;;;;;;;4983039;28;20343;-57
2022/06/18 06:27:56;;;;;;;3.75;2.90;;;;;;;;;;4981047;28;20210;-60
2022/06/18 06:30:22;;;;;;;3.75;2.85;;;;;;;;;;4979525;28;20267;-58
2022/06/18 06:32:48;;;;;;;6.07;3.28;;;;;;;;;;4983728;28;20187;-58
2022/06/18 06:35:14;;;;;;;5.20;3.13;;;;;;;;;;4974215;28;20225;-58
2022/06/18 06:37:40;;;;;;;5.95;3.30;;;;;;;;;;4974590;28;20186;-60
2022/06/18 06:40:06;;;;;;;7.43;3.10;;;;;;;;;;4974803;28;20193;-60
2022/06/18 06:42:41;;;;;;;3.78;3.40;;;;;;;;;;4966841;28;20236;-60
2022/06/18 06:45:10;;;;;;;3.67;3.38;;;;;;;;;;4966618;28;20665;-59
2022/06/18 06:47:36;;;;;;;5.88;3.30;;;;;;;;;;4967687;28;20666;-60
2022/06/18 06:50:02;;;;;;;8.15;3.53;;;;;;;;;;4971658;28;20198;-59
2022/06/18 06:52:28;;;;;;;4.97;2.88;;;;;;;;;;4976620;28;20189;-59
2022/06/18 06:57:21;;;;;;;4.97;2.83;;;;;;;;;;4973155;28;20178;-61
2022/06/18 06:57:42;;;;;;;20.88;4.28;;;;;;;;;;4982338;28;20194;-61
2022/06/18 07:00:08;;;;;;;13.82;3.42;;;;;;;;;;4981154;28;20213;-62
2022/06/18 07:02:34;;;;;;;4.85;3.38;;;;;;;;;;4977236;28;20190;-62
2022/06/18 07:05:00;;;;;;;3.92;3.05;;;;;;;;;;4981882;28;20816;-62
2022/06/18 07:07:26;;;;;;;4.63;3.05;;;;;;;;;;4981413;28;20276;-63
2022/06/18 07:09:52;;;;;;;9.68;3.20;;;;;;;;;;4977733;28;20213;-62
2022/06/18 07:12:18;;;;;;;3.83;2.80;;;;;;;;;;4972570;28;20181;-62
2022/06/18 07:14:44;;;;;;;4.45;3.22;;;;;;;;;;4981573;28;20571;-63
2022/06/18 07:17:15;;;;;;;7.45;3.00;;;;;;;;;;4980664;28;20185;-63
2022/06/18 07:19:41;;;;;;;5.40;3.05;;;;;;;;;;4980482;28;20872;-63
2022/06/18 07:22:10;;;;;;;6.35;3.05;;;;;;;;;;4979653;28;20831;-65
2022/06/18 07:24:36;;;;;;;5.28;3.17;;;;;;;;;;4973800;28;20328;-63
2022/06/18 07:27:02;;;;;;;3.50;2.75;;;;;;;;;;4966414;28;20678;-64
2022/06/18 07:29:28;;;;;;;5.65;2.97;;;;;;;;;;4965985;28;20263;-63
2022/06/18 07:31:54;;;;;;;5.70;2.90;;;;;;;;;;4969652;28;20178;-62
2022/06/18 07:34:20;;;;;;;7.47;3.42;;;;;;;;;;4974563;28;20566;-64
2022/06/18 07:36:46;;;;;;;5.18;2.90;;;;;;;;;;4976966;28;20286;-64
2022/06/18 07:39:12;;;;;;;6.10;2.67;;;;;;;;;;4979967;28;20224;-63
2022/06/18 07:41:38;;;;;;;5.90;3.05;;;;;;;;;;4978854;28;20725;-62
2022/06/18 07:44:05;;;;;;;8.70;2.97;;;;;;;;;;4978729;28;20177;-62
2022/06/18 07:46:31;;;;;;;4.20;2.78;;;;;;;;;;4973326;28;20240;-61
2022/06/18 07:48:56;;;;;;;4.15;3.08;;;;;;;;;;4965911;28;20684;-62
2022/06/18 07:51:23;;;;;;;8.38;3.28;;;;;;;;;;4979576;28;20182;-61
2022/06/18 07:53:50;;;;;;;7.25;3.13;;;;;;;;;;4982792;28;20236;-60
2022/06/18 07:56:16;;;;;;;3.47;3.08;;;;;;;;;;4980988;28;20189;-60
2022/06/18 07:58:42;;;;;;;5.30;3.22;;;;;;;;;;4984857;28;20515;-60
2022/06/18 08:01:08;;;;;;;3.50;3.20;;;;;;;;;;4980200;28;20580;-60
2022/06/18 08:03:35;;;;;;;6.07;3.55;;;;;;;;;;4970497;28;20614;-61
2022/06/18 08:06:01;;;;;;;3.85;3.30;;;;;;;;;;4978650;28;21170;-60
2022/06/18 08:08:27;;;;;;;6.07;3.10;;;;;;;;;;4983913;28;20202;-61
2022/06/18 08:10:53;;;;;;;4.75;3.40;;;;;;;;;;4983731;28;20218;-59
2022/06/18 08:13:20;;;;;;;5.28;3.20;;;;;;;;;;4985521;28;20671;-59
2022/06/18 08:15:46;;;;;;;7.32;3.47;;;;;;;;;;4981379;28;20666;-60
2022/06/18 08:18:12;;;;;;;7.95;3.83;;;;;;;;;;4986435;28;20209;-59
2022/06/18 08:20:37;;;;;;;10.30;3.60;;;;;;;;;;4983312;28;20186;-59
2022/06/18 08:23:03;;;;;;;5.78;3.80;;;;;;;;;;4990391;28;20193;-59
2022/06/18 08:25:30;;;;;;;4.75;3.40;;;;;;;;;;4987983;28;20197;-60
2022/06/18 08:27:56;;;;;;;6.05;3.42;;;;;;;;;;4990594;28;20216;-59
2022/06/18 08:30:22;;;;;;;3.85;3.47;;;;;;;;;;4977073;28;20273;-59
2022/06/18 08:32:48;;;;;;;6.55;3.17;;;;;;;;;;4979011;28;20644;-59
2022/06/18 08:35:14;;;;;;;3.55;3.10;;;;;;;;;;4982890;28;20207;-57
2022/06/18 08:37:40;;;;;;;4.75;3.15;;;;;;;;;;4977309;28;20567;-59
2022/06/18 08:40:34;;;;;;;6.65;3.58;;;;;;;;;;4987541;28;20233;-59
2022/06/18 08:43:00;;;;;;;8.38;3.35;;;;;;;;;;4993121;28;20209;-58
2022/06/18 08:45:26;;;;;;;4.90;3.42;;;;;;;;;;4986016;28;20684;-59
2022/06/18 08:47:56;;;;;;;9.60;3.60;;;;;;;;;;4973826;28;20189;-60
2022/06/18 08:50:37;;;;;;;5.80;3.53;;;;;;;;;;4966857;28;20566;-60
2022/06/18 08:53:06;;;;;;;5.07;3.28;;;;;;;;;;4980418;28;20194;-60
2022/06/18 08:55:38;;;;;;;4.85;3.50;;;;;;;;;;4980631;28;20174;-60
2022/06/18 08:58:13;;;;;;;3.72;3.00;;;;;;;;;;4977116;28;20186;-61
2022/06/18 09:01:00;;;;;;;8.25;2.97;;;;;;;;;;4986505;28;20231;-60
2022/06/18 09:03:35;;;;;;;7.22;3.42;;;;;;;;;;4974691;28;20287;-60
2022/06/18 09:06:07;;;;;;;8.43;3.05;;;;;;;;;;4974590;28;20197;-60
2022/06/18 09:08:53;;;;;;;5.72;2.80;;;;;;;;;;4984986;28;20737;-59
2022/06/18 09:11:21;;;;;;;5.28;3.00;;;;;;;;;;4976017;28;20818;-60
2022/06/18 09:13:49;;;;;;;3.63;2.72;;;;;;;;;;4983861;28;20182;-60
2022/06/18 09:16:16;;;;;;;6.80;3.35;;;;;;;;;;4981838;28;20178;-61
2022/06/18 09:18:50;;;;;;;5.18;2.80;;;;;;;;;;4984975;28;20198;-59
2022/06/18 09:21:21;;;;;;;9.32;3.17;;;;;;;;;;4982830;28;20189;-61
2022/06/18 09:23:50;;;;;;;8.30;3.00;;;;;;;;;;4983534;28;20194;-60
2022/06/18 09:26:22;;;;;;;18.63;3.58;;;;;;;;;;4975708;28;22127;-56
2022/06/18 09:29:09;;;;;;;10.45;3.80;;;;;;;;;;4990443;28;20296;-56
2022/06/18 09:31:35;;;;;;;5.10;2.78;;;;;;;;;;4983105;28;20189;-56
2022/06/18 09:34:21;;;;;;;8.07;3.22;;;;;;;;;;4983646;28;20515;-56
2022/06/18 09:36:48;;;;;;;8.70;2.85;;;;;;;;;;4978374;28;20304;-56
2022/06/18 09:39:18;;;;;;;10.05;3.00;;;;;;;;;;4982147;28;20300;-56
2022/06/18 09:41:48;;;;;;;8.88;2.40;;;;;;;;;;4982402;28;20194;-56
2022/06/18 09:44:29;;;;;;;7.75;3.30;;;;;;;;;;4982386;28;20190;-56
2022/06/18 09:47:03;;;;;;;4.22;2.50;;;;;;;;;;4976596;28;20198;-56
2022/06/18 09:49:29;;;;;;;4.60;3.10;;;;;;;;;;4983256;28;20582;-56
2022/06/18 09:52:08;;;;;;;5.65;2.65;;;;;;;;;;4984599;28;20978;-56
2022/06/18 09:54:36;;;;;;;8.48;2.97;;;;;;;;;;4982192;28;20177;-56
2022/06/18 09:57:03;;;;;;;5.63;2.90;;;;;;;;;;4984030;28;20182;-56
2022/06/18 09:59:36;;;;;;;7.95;2.92;;;;;;;;;;4984140;28;20216;-56
2022/06/18 10:02:02;;;;;;;8.50;3.10;;;;;;;;;;4968503;28;20194;-56
2022/06/18 10:07:17;;;;;;;6.80;3.10;;;;;;;;;;4977846;28;20263;-59
2022/06/18 10:09:43;;;;;;;5.82;2.90;;;;;;;;;;4983329;28;20202;-57
2022/06/18 10:12:14;;;;;;;8.20;3.08;;;;;;;;;;4975065;28;20214;-58
2022/06/18 10:14:40;;;;;;;7.93;2.75;;;;;;;;;;4978365;28;20181;-58
2022/06/18 10:17:06;;;;;;;5.25;3.00;;;;;;;;;;4973921;28;20602;-58
2022/06/18 10:19:38;;;;;;;10.40;3.55;;;;;;;;;;4972704;28;20613;-60
2022/06/18 10:22:22;;;;;;;10.40;3.00;;;;;;;;;;4979419;28;20189;-59
2022/06/18 10:24:52;;;;;;;6.45;3.50;;;;;;;;;;4976430;28;20198;-58
2022/06/18 10:27:21;;;;;;;7.13;2.92;;;;;;;;;;4986212;28;20561;-58
2022/06/18 10:29:53;;;;;;;31.25;6.38;;;;;;;;;;4980706;28;20206;-56
2022/06/18 10:32:22;;;;;;;5.40;3.10;;;;;;;;;;4982802;28;20200;-56
2022/06/18 10:35:07;;;;;;;6.85;3.10;;;;;;;;;;4979142;28;20186;-57
2022/06/18 10:37:52;;;;;;;9.73;3.20;;;;;;;;;;4977012;28;20189;-58
2022/06/18 10:40:40;;;;;;;6.55;3.25;;;;;;;;;;4972582;28;20197;-58
2022/06/18 10:43:06;;;;;;;6.88;3.33;;;;;;;;;;4978695;28;20190;-58
2022/06/18 10:45:40;;;;;;;8.07;3.05;;;;;;;;;;4979883;28;20188;-58
2022/06/18 10:48:10;;;;;;;19.67;4.47;;;;;;;;;;4983884;28;20206;-58
2022/06/18 10:50:46;;;;;;;14.02;3.53;;;;;;;;;;4978945;28;20757;-58
2022/06/18 10:53:13;;;;;;;7.35;3.63;;;;;;;;;;4984604;28;20196;-59
2022/06/18 10:55:39;;;;;;;10.20;3.85;;;;;;;;;;4983645;28;20209;-58
2022/06/18 10:58:15;;;;;;;4.80;3.40;;;;;;;;;;4981492;28;20189;-58
2022/06/18 11:00:42;;;;;;;5.53;2.88;;;;;;;;;;4976894;28;20552;-58
2022/06/18 11:03:19;;;;;;;7.15;3.00;;;;;;;;;;4977219;28;20677;-59
2022/06/18 11:05:45;;;;;;;6.30;3.20;;;;;;;;;;4970021;28;20247;-58
2022/06/18 11:08:22;;;;;;;5.85;3.13;;;;;;;;;;4979663;28;20186;-58
2022/06/18 11:10:51;;;;;;;5.93;3.75;;;;;;;;;;4975445;28;20223;-58
2022/06/18 11:13:22;;;;;;;6.60;3.03;;;;;;;;;;4978940;28;20202;-58
2022/06/18 11:15:48;;;;;;;4.95;3.10;;;;;;;;;;4982043;28;20198;-59
2022/06/18 11:18:15;;;;;;;7.60;3.53;;;;;;;;;;4991010;28;20623;-58
2022/06/18 11:20:41;;;;;;;8.98;3.13;;;;;;;;;;4985112;28;20194;-59
2022/06/18 11:23:13;;;;;;;5.57;3.42;;;;;;;;;;4980576;28;20242;-59
2022/06/18 11:25:39;;;;;;;7.40;3.15;;;;;;;;;;4990796;28;20182;-58
2022/06/18 11:28:16;;;;;;;7.07;3.45;;;;;;;;;;4984312;28;24597;-58
2022/06/18 11:30:43;;;;;;;7.72;3.42;;;;;;;;;;4982064;28;20280;-58
2022/06/18 11:33:27;;;;;;;12.05;3.28;;;;;;;;;;4987341;28;20175;-59
2022/06/18 11:35:54;;;;;;;8.48;3.20;;;;;;;;;;4983853;28;20193;-58
2022/06/18 11:38:26;;;;;;;6.47;3.13;;;;;;;;;;4983811;28;20211;-58
2022/06/18 11:40:53;;;;;;;9.68;3.10;;;;;;;;;;4986664;28;20186;-58
2022/06/18 11:43:25;;;;;;;9.75;3.67;;;;;;;;;;4991364;28;20194;-59
2022/06/18 11:45:52;;;;;;;8.25;3.30;;;;;;;;;;4990197;28;20199;-58
2022/06/18 11:48:27;;;;;;;7.68;3.13;;;;;;;;;;4986508;28;20281;-58
2022/06/18 11:50:57;;;;;;;6.55;3.17;;;;;;;;;;4986758;28;20506;-58
2022/06/18 11:53:42;;;;;;;5.50;2.97;;;;;;;;;;4981701;28;20189;-59
2022/06/18 11:56:28;;;;;;;9.02;3.45;;;;;;;;;;4975543;28;20198;-59
2022/06/18 11:58:56;;;;;;;6.13;3.00;;;;;;;;;;4978414;28;20877;-59
2022/06/18 12:01:28;;;;;;;4.45;3.28;;;;;;;;;;4982652;28;20678;-58
2022/06/18 12:03:59;;;;;;;9.27;3.40;;;;;;;;;;4987664;28;20197;-59
2022/06/18 12:06:27;;;;;;;7.70;3.50;;;;;;;;;;4973468;28;20795;-58
2022/06/18 12:08:53;;;;;;;10.60;3.58;;;;;;;;;;4988091;28;20194;-58
2022/06/18 12:11:38;;;;;;;9.52;3.47;;;;;;;;;;4976819;28;20202;-59
2022/06/18 12:14:06;;;;;;;10.68;4.38;;;;;;;;;;4987745;28;20183;-58
2022/06/18 12:16:37;;;;;;;8.20;3.58;;;;;;;;;;4986130;28;20181;-60
2022/06/18 12:19:03;;;;;;;9.00;3.65;;;;;;;;;;4992475;28;20190;-59
2022/06/18 12:21:32;;;;;;;6.72;3.28;;;;;;;;;;4979947;28;20267;-60
2022/06/18 12:23:58;;;;;;;9.55;3.28;;;;;;;;;;4978189;28;20193;-59
2022/06/18 12:26:27;;;;;;;6.28;3.40;;;;;;;;;;4986654;28;20194;-59
2022/06/18 12:29:05;;;;;;;12.90;3.00;;;;;;;;;;4989241;28;20224;-59
2022/06/18 12:31:31;;;;;;;7.22;3.30;;;;;;;;;;4973524;28;20228;-59
2022/06/18 12:34:11;;;;;;;10.25;3.67;;;;;;;;;;4989018;28;20566;-59
2022/06/18 12:36:42;;;;;;;6.80;3.08;;;;;;;;;;4989831;28;20499;-59
2022/06/18 12:39:08;;;;;;;13.02;4.07;;;;;;;;;;4991705;28;20248;-59
2022/06/18 12:41:43;;;;;;;5.55;3.35;;;;;;;;;;4987243;28;20241;-60
2022/06/18 12:44:18;;;;;;;7.43;3.55;;;;;;;;;;4984344;28;20185;-58
2022/06/18 12:47:01;;;;;;;8.15;3.28;;;;;;;;;;4985931;28;20185;-59
2022/06/18 12:49:46;;;;;;;6.85;3.40;;;;;;;;;;4990582;28;20308;-58
2022/06/18 12:52:24;;;;;;;6.53;3.45;;;;;;;;;;4992404;28;20197;-59
2022/06/18 12:55:08;;;;;;;8.80;3.63;;;;;;;;;;4989174;28;20212;-59
2022/06/18 12:57:38;;;;;;;6.85;3.65;;;;;;;;;;4971895;28;20886;-58
2022/06/18 13:00:13;;;;;;;5.85;3.58;;;;;;;;;;4981096;28;20198;-58
2022/06/18 13:02:52;;;;;;;6.38;3.17;;;;;;;;;;4985806;28;20378;-58
2022/06/18 13:05:37;;;;;;;8.73;3.47;;;;;;;;;;4980120;28;20190;-59
2022/06/18 13:08:22;;;;;;;8.52;3.40;;;;;;;;;;4979845;28;20329;-59
2022/06/18 13:10:53;;;;;;;11.88;3.92;;;;;;;;;;4976855;28;20233;-58
2022/06/18 13:13:26;;;;;;;8.30;3.40;;;;;;;;;;4988054;28;20603;-58
2022/06/18 13:16:12;;;;;;;13.23;3.90;;;;;;;;;;4981523;28;20647;-58
2022/06/18 13:18:50;;;;;;;7.45;3.78;;;;;;;;;;4983046;28;20678;-59
2022/06/18 13:21:15;;;;;;;7.38;3.30;;;;;;;;;;4986237;28;20190;-59
2022/06/18 13:29:32;;;;;;;11.43;3.35;;;;;;;;;;4977625;28;20224;-58
2022/06/18 13:32:08;;;;;;;11.20;3.97;;;;;;;;;;4980277;28;20189;-60
2022/06/18 13:35:03;;;;;;;10.25;3.05;;;;;;;;;;4979404;28;20198;-57
2022/06/18 13:37:35;;;;;;;15.68;3.90;;;;;;;;;;4975151;28;20211;-58
2022/06/18 13:40:05;;;;;;;7.38;3.70;;;;;;;;;;4984741;28;20185;-58
2022/06/18 13:42:49;;;;;;;10.48;3.22;;;;;;;;;;4988735;28;20198;-58
2022/06/18 13:45:15;;;;;;;8.25;3.60;;;;;;;;;;4962510;28;20197;-61
2022/06/18 13:48:02;;;;;;;8.73;3.85;;;;;;;;;;4985307;28;20539;-59
2022/06/18 13:50:58;;;;;;;7.55;3.35;;;;;;;;;;4983314;28;20205;-59
2022/06/18 13:53:24;;;;;;;8.10;3.40;;;;;;;;;;4975950;28;20194;-58
2022/06/18 13:55:50;;;;;;;10.20;3.85;;;;;;;;;;4983915;28;20284;-59
2022/06/18 13:58:19;;;;;;;7.78;3.90;;;;;;;;;;4985908;28;20193;-58
2022/06/18 14:00:45;;;;;;;8.95;3.63;;;;;;;;;;4982735;28;20194;-59
2022/06/18 14:03:16;;;;;;;7.57;3.45;;;;;;;;;;4984122;28;20200;-59
2022/06/18 14:05:45;;;;;;;6.10;3.40;;;;;;;;;;4972927;28;20310;-59
2022/06/18 14:08:23;;;;;;;7.03;3.83;;;;;;;;;;4972370;28;20222;-59
2022/06/18 14:10:49;;;;;;;10.65;3.63;;;;;;;;;;4978838;28;20580;-58
2022/06/18 14:13:21;;;;;;;10.95;3.83;;;;;;;;;;4973304;28;20220;-59
2022/06/18 14:16:05;;;;;;;7.55;3.70;;;;;;;;;;4975683;28;20182;-60
2022/06/18 14:18:32;;;;;;;6.93;3.17;;;;;;;;;;4982145;28;20188;-60
2022/06/18 14:21:08;;;;;;;7.57;3.50;;;;;;;;;;4974301;28;20194;-60
2022/06/18 14:23:38;;;;;;;9.73;3.53;;;;;;;;;;4983232;28;20193;-59
2022/06/18 14:26:12;;;;;;;15.75;3.65;;;;;;;;;;4984453;28;20181;-59
2022/06/18 14:28:45;;;;;;;12.05;4.00;;;;;;;;;;4980320;28;20691;-59
2022/06/18 14:31:30;;;;;;;8.88;3.85;;;;;;;;;;4980838;28;20217;-57
2022/06/18 14:33:59;;;;;;;10.07;3.80;;;;;;;;;;4986718;28;20178;-60
2022/06/18 14:36:26;;;;;;;10.48;3.75;;;;;;;;;;4984287;28;20807;-60
2022/06/18 14:38:56;;;;;;;5.35;3.78;;;;;;;;;;4980560;28;20190;-60
2022/06/18 14:41:35;;;;;;;6.68;3.50;;;;;;;;;;4986286;28;20186;-60
2022/06/18 14:44:14;;;;;;;10.57;3.53;;;;;;;;;;4991476;28;20231;-60
2022/06/18 14:46:57;;;;;;;11.95;3.60;;;;;;;;;;4988012;28;20188;-60
2022/06/18 14:49:35;;;;;;;10.93;3.60;;;;;;;;;;4984201;28;20575;-59
2022/06/18 14:52:07;;;;;;;8.68;3.47;;;;;;;;;;4947580;28;20192;-60
2022/06/18 14:54:46;;;;;;;5.53;3.25;;;;;;;;;;4975713;28;20548;-60
2022/06/18 14:57:15;;;;;;;7.72;3.15;;;;;;;;;;4983149;28;20651;-61
2022/06/18 14:59:52;;;;;;;13.10;3.53;;;;;;;;;;4984459;28;20198;-60
2022/06/18 15:02:30;;;;;;;6.03;3.30;;;;;;;;;;4977078;28;20204;-60
2022/06/18 15:04:59;;;;;;;11.68;3.45;;;;;;;;;;4986316;28;20189;-60
2022/06/18 15:07:29;;;;;;;7.78;3.72;;;;;;;;;;4980640;28;21203;-60
2022/06/18 15:09:55;;;;;;;10.43;3.67;;;;;;;;;;4988609;28;20609;-60
2022/06/18 15:12:21;;;;;;;6.30;3.05;;;;;;;;;;4981287;28;20231;-59